Time;durP1;ratioP1;P1;durP2;ratioP2;P2;SDS_P1;SDS_P2;PMS_P1;PMS_P2;Temp;Humidity;BMP_temperature;BMP_pressure;BME280_temperature;BME280_humidity;BME280_pressure;Samples;Min_cycle;Max_cycle;Signal;HPM_P1;HPM_P2
2022/10/05 00:02:17;;;;;;;3.20;2.20;;;;;;;8.50;71.02;99671.34;25166;1315;3028299;-71
2022/10/05 00:04:47;;;;;;;3.70;2.40;;;;;;;8.40;71.51;99675.46;25152;1313;3052691;-72
2022/10/05 00:07:17;;;;;;;3.10;2.10;;;;;;;8.30;71.93;99680.83;25186;1315;3026564;-65
2022/10/05 00:09:57;;;;;;;3.20;1.70;;;;;;;8.24;72.73;99687.24;25142;1315;3026993;-70
2022/10/05 00:12:27;;;;;;;2.00;1.20;;;;;;;8.90;71.32;99688.96;25174;1313;3052250;-70
2022/10/05 00:14:59;;;;;;;5.00;2.00;;;;;;;9.48;69.61;99688.29;25146;1315;3026738;-69
2022/10/05 00:17:28;;;;;;;3.70;2.10;;;;;;;9.46;68.86;99689.58;25172;1315;3026449;-73
2022/10/05 00:19:57;;;;;;;4.00;1.90;;;;;;;9.21;69.33;99688.45;25134;1315;3028549;-67
2022/10/05 00:22:31;;;;;;;5.00;2.60;;;;;;;9.09;69.35;99689.91;25183;1313;3027856;-67
2022/10/05 00:25:01;;;;;;;7.80;2.30;;;;;;;8.84;70.15;99690.27;25166;1315;3055163;-71
2022/10/05 00:27:32;;;;;;;3.70;2.10;;;;;;;8.68;70.48;99697.00;25209;1315;3026632;-70
2022/10/05 00:30:15;;;;;;;4.50;2.10;;;;;;;8.57;70.90;99698.09;25166;1313;3027697;-68
2022/10/05 00:32:46;;;;;;;6.10;2.40;;;;;;;8.51;70.91;99698.88;25173;1313;3055332;-68
2022/10/05 00:35:17;;;;;;;2.90;2.00;;;;;;;8.43;71.26;99703.79;24793;1315;3028124;-66
2022/10/05 00:37:51;;;;;;;3.30;2.10;;;;;;;8.42;71.38;99711.71;25169;1315;3066956;-72
2022/10/05 00:40:57;;;;;;;4.30;2.40;;;;;;;8.26;72.19;99708.58;25189;1315;3048665;-68
2022/10/05 00:43:48;;;;;;;2.30;1.60;;;;;;;8.37;72.56;99714.01;25187;1313;3052075;-69
2022/10/05 00:46:22;;;;;;;4.20;1.80;;;;;;;9.18;70.64;99710.41;25160;1316;3054852;-72
2022/10/05 00:49:02;;;;;;;3.90;2.10;;;;;;;9.53;69.11;99714.73;25159;1315;3057657;-66
2022/10/05 00:51:37;;;;;;;3.70;2.30;;;;;;;9.59;68.83;99710.10;25117;1315;3051425;-70
2022/10/05 00:54:18;;;;;;;3.60;2.00;;;;;;;9.42;68.56;99716.92;25140;1313;3051360;-69
2022/10/05 00:57:05;;;;;;;3.30;1.90;;;;;;;9.26;68.87;99717.89;25147;1315;3051528;-71
2022/10/05 00:59:38;;;;;;;3.70;2.00;;;;;;;9.16;68.80;99721.52;25147;1315;3068028;-70
2022/10/05 01:02:13;;;;;;;4.80;2.30;;;;;;;9.07;69.07;99720.42;25132;1313;3048294;-67
2022/10/05 01:04:58;;;;;;;4.20;2.30;;;;;;;8.93;69.47;99729.35;25189;1315;3051927;-70
2022/10/05 05:29:44;;;;;;;4.90;1.90;;;;;;;11.08;69.37;99950.74;25151;1315;3069032;-73
2022/10/05 05:32:33;;;;;;;4.70;2.40;;;;;;;11.12;68.48;99950.72;25166;1313;3051082;-70
2022/10/05 05:35:03;;;;;;;3.10;2.00;;;;;;;10.72;69.32;99947.07;25180;1315;3054729;-71
2022/10/05 05:37:42;;;;;;;3.10;2.20;;;;;;;10.66;69.55;99950.05;25125;1313;3026190;-66
2022/10/05 05:40:15;;;;;;;5.10;2.60;;;;;;;10.53;69.82;99950.70;25133;1313;3047914;-72
2022/10/05 05:42:54;;;;;;;;;;;;;;;10.31;70.77;99953.05;25204;1315;3052915;-75
2022/10/05 05:45:39;;;;;;;4.50;2.70;;;;;;;10.08;71.89;99954.59;25153;1314;3052891;-71
2022/10/05 05:48:30;;;;;;;6.40;3.40;;;;;;;10.03;71.99;99960.97;25173;1314;3058572;-69
2022/10/05 05:51:36;;;;;;;7.00;3.90;;;;;;;9.87;73.31;99957.19;25146;1314;3052597;-72
2022/10/05 05:54:14;;;;;;;4.70;2.80;;;;;;;10.01;73.46;99963.01;25117;1315;3052345;-71
2022/10/05 05:56:50;;;;;;;7.40;3.20;;;;;;;10.96;71.33;99958.95;25148;1315;3053582;-70
2022/10/05 05:59:23;;;;;;;6.50;3.20;;;;;;;11.44;69.06;99956.48;25113;1315;3069454;-68
2022/10/05 06:02:04;;;;;;;4.70;2.90;;;;;;;11.45;68.81;99951.35;25138;1315;3048986;-70
2022/10/05 06:04:43;;;;;;;5.40;3.20;;;;;;;11.45;68.48;99948.38;25088;1315;3052127;-71
2022/10/05 06:07:23;;;;;;;8.70;3.30;;;;;;;11.19;68.92;99952.64;25127;1313;3053224;-74
2022/10/05 06:10:03;;;;;;;7.60;3.20;;;;;;;11.11;69.07;99957.12;25084;1314;3057460;-74
2022/10/05 06:12:44;;;;;;;6.10;3.50;;;;;;;10.97;69.75;99958.05;25092;1315;3052712;-71
2022/10/05 06:15:52;;;;;;;8.20;3.80;;;;;;;10.81;70.52;99967.97;25172;1315;3051879;-70
2022/10/05 06:18:24;;;;;;;5.20;3.30;;;;;;;10.89;70.66;99966.88;25188;1312;3054388;-70
2022/10/05 06:20:58;;;;;;;7.80;3.60;;;;;;;10.93;71.08;99962.80;25087;1312;3026275;-72
2022/10/05 06:23:38;;;;;;;6.90;3.20;;;;;;;11.11;69.83;99961.48;25140;1312;3027020;-69
2022/10/05 06:26:30;;;;;;;1.70;1.30;;;;;;;11.31;69.31;99960.21;25051;1315;3054149;-70
2022/10/05 06:29:03;;;;;;;4.30;2.40;;;;;;;12.19;67.64;99953.05;25135;1315;3051848;-70
2022/10/05 06:31:47;;;;;;;3.20;2.00;;;;;;;12.82;65.84;99954.22;25149;1314;3026432;-70
2022/10/05 06:34:39;;;;;;;4.90;2.00;;;;;;;12.94;64.75;99949.05;25124;1314;3052661;-71
2022/10/05 06:37:12;;;;;;;4.70;2.00;;;;;;;12.87;64.43;99949.13;25122;1314;3054140;-71
2022/10/05 06:39:48;;;;;;;2.40;1.80;;;;;;;12.66;65.39;99949.04;25099;1315;3028627;-70
2022/10/05 06:42:30;;;;;;;2.30;1.70;;;;;;;12.66;65.44;99949.71;25065;1313;3067754;-71
2022/10/05 06:45:21;;;;;;;;;;;;;;;12.66;65.20;99958.13;25135;1315;3049525;-70
2022/10/05 06:48:40;;;;;;;3.80;2.40;;;;;;;12.58;66.05;99958.48;25061;1313;3055473;-74
2022/10/05 06:51:37;;;;;;;3.80;2.30;;;;;;;12.61;66.02;99964.48;25109;1314;3054896;-68
2022/10/05 06:54:32;;;;;;;3.00;2.00;;;;;;;12.62;66.31;99956.69;25146;1313;3055979;-67
2022/10/05 06:57:20;;;;;;;3.50;2.10;;;;;;;12.74;65.71;99966.27;25112;1313;3050934;-71
2022/10/05 07:00:06;;;;;;;2.20;1.70;;;;;;;12.75;65.68;99964.09;25269;1313;3053172;-70
2022/10/05 07:02:42;;;;;;;3.80;1.80;;;;;;;12.86;65.45;99970.98;25097;1315;3051699;-69
2022/10/05 07:05:33;;;;;;;2.40;1.70;;;;;;;12.98;64.96;99963.02;25080;1314;3067968;-72
2022/10/05 07:08:12;;;;;;;2.80;1.70;;;;;;;13.07;64.25;99973.92;25114;1314;3050216;-70
2022/10/05 07:10:51;;;;;;;2.40;1.50;;;;;;;13.10;64.36;99968.61;25147;1315;3052188;-71
2022/10/05 07:13:42;;;;;;;3.00;1.90;;;;;;;13.17;63.94;99977.88;25178;1314;3052742;-70
2022/10/05 07:16:30;;;;;;;2.80;1.40;;;;;;;13.16;63.59;99971.27;25172;1315;3056714;-70
2022/10/05 07:19:20;;;;;;;3.60;1.70;;;;;;;13.14;63.47;99974.16;25068;1316;3052563;-73
2022/10/05 07:21:59;;;;;;;3.00;1.20;;;;;;;13.14;63.39;99972.25;25107;1314;3053214;-71
2022/10/05 07:24:31;;;;;;;3.20;1.70;;;;;;;13.16;63.11;99986.73;25188;1312;3051171;-70
2022/10/05 07:27:01;;;;;;;2.40;1.50;;;;;;;13.02;63.47;99986.19;25181;1315;3026314;-68
2022/10/05 07:29:38;;;;;;;7.00;1.40;;;;;;;13.00;63.70;99988.28;25136;1315;3029714;-70
2022/10/05 07:32:33;;;;;;;4.20;1.60;;;;;;;13.00;64.18;99994.41;25161;1315;3055429;-74
2022/10/05 07:37:53;;;;;;;2.80;1.50;;;;;;;13.04;63.77;100004.50;25171;1314;3053344;-72
2022/10/05 07:38:18;;;;;;;1.90;1.60;;;;;;;13.00;64.43;100007.39;25111;1313;3057511;-66
2022/10/05 07:40:51;;;;;;;3.00;2.10;;;;;;;13.15;63.84;100012.66;25148;1314;3052751;-76
2022/10/05 07:43:30;;;;;;;2.60;1.90;;;;;;;13.13;64.13;100014.50;25114;1315;3052010;-72
2022/10/05 07:46:39;;;;;;;3.40;2.00;;;;;;;13.23;64.15;100009.16;25058;1314;3053799;-70
2022/10/05 07:49:17;;;;;;;4.10;2.00;;;;;;;13.27;63.49;100023.14;25110;1312;3071089;-74
2022/10/05 07:51:59;;;;;;;4.80;2.20;;;;;;;13.25;63.14;100030.98;25197;1312;3052138;-71
2022/10/05 07:54:37;;;;;;;2.90;1.60;;;;;;;13.19;63.65;100029.77;25235;1312;3054896;-74
2022/10/05 07:57:21;;;;;;;3.20;1.70;;;;;;;13.17;64.16;100031.66;25156;1315;3052893;-70
2022/10/05 08:00:05;;;;;;;4.80;1.90;;;;;;;13.26;63.62;100020.73;25182;1315;3059877;-68
2022/10/05 08:03:10;;;;;;;4.50;1.70;;;;;;;13.31;63.37;100027.84;25230;1313;3052482;-68
2022/10/05 08:05:40;;;;;;;4.20;2.00;;;;;;;13.45;62.84;100025.36;25221;1313;3053028;-68
2022/10/05 08:08:28;;;;;;;4.30;1.70;;;;;;;13.50;62.45;100021.19;25169;1314;3026949;-72
2022/10/05 08:11:16;;;;;;;5.00;1.60;;;;;;;13.55;62.19;100025.10;25204;1314;3069924;-68
2022/10/05 08:13:50;;;;;;;3.40;2.00;;;;;;;13.60;61.62;100038.83;25259;1313;3050576;-69
2022/10/05 08:16:19;;;;;;;2.20;1.60;;;;;;;13.54;61.89;100030.60;25239;1314;3053655;-68
2022/10/05 08:19:05;;;;;;;3.80;1.80;;;;;;;13.60;62.20;100042.71;25236;1313;3027017;-70
2022/10/05 08:21:39;;;;;;;3.20;1.50;;;;;;;13.72;61.75;100041.26;25308;1313;3050083;-72
2022/10/05 08:24:19;;;;;;;2.60;1.70;;;;;;;13.76;61.82;100043.11;25268;1314;3055604;-71
2022/10/05 08:27:05;;;;;;;2.10;1.70;;;;;;;13.83;62.11;100045.64;25335;1313;3052198;-68
2022/10/05 08:29:40;;;;;;;2.10;1.60;;;;;;;13.97;61.98;100044.55;25224;1313;3056678;-72
2022/10/05 08:32:26;;;;;;;5.00;2.00;;;;;;;14.03;61.91;100040.49;25144;1314;3049618;-71
2022/10/05 08:35:01;;;;;;;5.00;1.90;;;;;;;14.12;61.87;100046.98;25178;1314;3052747;-74
2022/10/05 08:37:32;;;;;;;3.70;1.70;;;;;;;14.33;61.02;100047.27;25227;1315;3050559;-69
2022/10/05 08:40:29;;;;;;;2.90;1.80;;;;;;;14.49;59.82;100059.82;25179;1313;3026368;-71
2022/10/05 08:43:02;;;;;;;3.60;1.40;;;;;;;14.53;59.28;100058.86;25178;1313;3048880;-70
2022/10/05 08:45:50;;;;;;;3.40;1.90;;;;;;;14.64;58.95;100063.93;25227;1313;3026491;-70
2022/10/05 08:48:40;;;;;;;1.70;1.30;;;;;;;14.73;58.74;100061.59;25190;1313;3052096;-74
2022/10/05 08:51:34;;;;;;;1.70;1.40;;;;;;;14.81;58.04;100054.70;25233;1313;3057376;-70
2022/10/05 08:54:25;;;;;;;2.60;1.60;;;;;;;15.17;58.07;100044.97;25316;1313;3050427;-68
2022/10/05 08:57:03;;;;;;;2.80;1.10;;;;;;;15.33;57.25;100054.64;25273;1315;3053364;-67
2022/10/05 08:59:51;;;;;;;7.20;1.40;;;;;;;15.27;56.48;100055.56;25168;1314;3051049;-71
2022/10/05 09:02:44;;;;;;;2.60;1.50;;;;;;;15.16;56.60;100060.92;25242;1313;3072738;-72
2022/10/05 09:05:23;;;;;;;2.50;1.60;;;;;;;15.14;56.92;100042.17;25167;1313;3049704;-72
2022/10/05 09:08:04;;;;;;;3.10;1.50;;;;;;;15.53;55.57;100035.99;25223;1313;3052794;-69
2022/10/05 09:10:58;;;;;;;2.20;1.30;;;;;;;15.70;55.20;100047.75;25280;1313;3052855;-72
2022/10/05 09:13:45;;;;;;;2.40;1.70;;;;;;;15.88;55.16;100042.00;25221;1313;3059263;-71
2022/10/05 09:16:41;;;;;;;3.00;1.80;;;;;;;16.01;54.61;100040.02;25213;1315;3049976;-71
2022/10/05 09:19:38;;;;;;;2.90;1.80;;;;;;;15.99;54.97;100046.32;25119;1313;3055290;-71
2022/10/05 09:22:29;;;;;;;3.10;1.80;;;;;;;15.66;55.31;100043.05;25289;1312;3054276;-71
2022/10/05 09:25:17;;;;;;;3.80;1.80;;;;;;;15.37;55.75;100042.83;25241;1313;3069043;-70
2022/10/05 09:27:57;;;;;;;3.40;1.80;;;;;;;15.28;55.68;100044.75;25350;1313;3049851;-73
2022/10/05 09:30:46;;;;;;;3.10;1.80;;;;;;;15.15;55.15;100046.47;25175;1315;3052337;-67
2022/10/05 09:33:24;;;;;;;4.30;2.00;;;;;;;15.16;55.64;100051.06;25288;1313;3052745;-71
2022/10/05 09:36:21;;;;;;;5.70;2.50;;;;;;;15.21;55.19;100048.02;25343;1314;3056441;-69
2022/10/05 09:39:22;;;;;;;6.00;2.20;;;;;;;15.26;54.81;100051.73;25313;1313;3052635;-70
2022/10/05 09:42:09;;;;;;;5.40;2.10;;;;;;;15.15;53.45;100051.30;25323;1313;3055458;-67
2022/10/05 09:44:57;;;;;;;7.70;2.30;;;;;;;15.36;53.04;100047.34;25326;1313;3051244;-68
2022/10/05 09:47:49;;;;;;;2.90;1.50;;;;;;;15.61;51.96;100041.64;25158;1313;3067643;-71
2022/10/05 09:50:27;;;;;;;2.70;1.50;;;;;;;16.01;50.95;100035.08;25205;1315;3052119;-70
2022/10/05 09:53:22;;;;;;;2.70;1.80;;;;;;;16.15;50.82;100036.89;25194;1314;3055434;-72
2022/10/05 09:56:08;;;;;;;4.30;2.10;;;;;;;16.04;51.71;100038.67;25244;1313;3055984;-72
2022/10/05 09:58:54;;;;;;;7.70;2.60;;;;;;;15.83;53.06;100047.48;25065;1316;3056679;-68
2022/10/05 10:01:55;;;;;;;7.00;3.40;;;;;;;15.58;53.76;100038.16;25136;1314;3049055;-71
2022/10/05 10:04:33;;;;;;;5.90;2.90;;;;;;;15.39;54.71;100035.23;25250;1313;3052245;-69
2022/10/05 10:07:43;;;;;;;5.30;3.10;;;;;;;15.33;55.17;100039.74;25317;1313;3052755;-67
2022/10/05 10:10:21;;;;;;;6.00;2.30;;;;;;;15.24;54.71;100045.00;25048;1318;3069325;-71
2022/10/05 10:13:28;;;;;;;4.70;2.50;;;;;;;15.34;54.28;100035.15;25216;1313;3051786;-69
2022/10/05 10:16:06;;;;;;;4.00;2.30;;;;;;;15.14;53.21;100045.00;25333;1314;3053445;-71
2022/10/05 10:19:05;;;;;;;4.80;2.50;;;;;;;15.07;52.82;100041.06;25550;1314;3056937;-70
2022/10/05 10:21:44;;;;;;;8.60;2.80;;;;;;;15.21;53.10;100042.55;25275;1313;3057592;-70
2022/10/05 10:24:21;;;;;;;2.80;2.10;;;;;;;15.42;52.48;100043.92;25164;1313;3050088;-71
2022/10/05 10:27:09;;;;;;;2.70;1.90;;;;;;;15.69;51.47;100037.20;25213;1313;3053336;-75
2022/10/05 10:30:12;;;;;;;2.90;2.20;;;;;;;15.76;50.73;100037.08;25155;1314;3051115;-74
2022/10/05 10:33:03;;;;;;;5.50;2.40;;;;;;;15.55;51.59;100046.30;25173;1315;3069383;-72
2022/10/05 10:35:36;;;;;;;3.60;2.10;;;;;;;15.42;51.56;100054.48;25127;1314;3049329;-74
2022/10/05 10:38:27;;;;;;;5.90;2.30;;;;;;;15.35;51.20;100053.23;25259;1314;3027045;-73
2022/10/05 10:41:02;;;;;;;4.50;2.10;;;;;;;15.33;51.31;100059.00;25233;1313;3053921;-74
2022/10/05 10:43:46;;;;;;;3.80;2.10;;;;;;;15.43;51.08;100043.42;25242;1313;3056299;-69
2022/10/05 10:46:30;;;;;;;5.50;2.30;;;;;;;15.75;49.90;100049.70;25162;1314;3051307;-73
2022/10/05 10:49:14;;;;;;;3.50;2.10;;;;;;;15.99;49.35;100047.08;25199;1313;3053029;-70
2022/10/05 10:52:02;;;;;;;4.10;1.90;;;;;;;15.99;48.86;100043.35;25187;1313;3052508;-71
2022/10/05 10:54:31;;;;;;;5.20;1.90;;;;;;;15.87;46.69;100044.23;25240;1313;3069419;-74
2022/10/05 10:57:43;;;;;;;3.90;1.70;;;;;;;16.09;46.41;100038.53;25294;1313;3026870;-74
2022/10/05 11:00:33;;;;;;;5.10;2.30;;;;;;;16.37;47.40;100036.41;24995;1321;3054628;-71
2022/10/05 11:03:30;;;;;;;;;;;;;;;16.50;48.96;100032.06;25031;1321;3068539;-70
2022/10/05 11:06:09;;;;;;;6.30;2.30;;;;;;;16.35;49.56;100034.82;25211;1313;3027240;-70
2022/10/05 11:08:48;;;;;;;5.40;2.30;;;;;;;16.32;50.34;100028.48;25256;1313;3053582;-75
2022/10/05 11:11:36;;;;;;;5.30;2.00;;;;;;;16.36;50.58;100026.79;25275;1313;3052428;-72
2022/10/05 11:14:19;;;;;;;4.20;2.10;;;;;;;16.21;50.55;100034.42;25837;1313;3055593;-75
2022/10/05 11:17:10;;;;;;;3.50;1.80;;;;;;;16.05;51.24;100027.19;25903;1313;3049808;-74
2022/10/05 11:20:24;;;;;;;6.00;2.30;;;;;;;15.97;50.81;100031.08;25924;1313;3051909;-70
2022/10/05 11:23:12;;;;;;;3.90;2.00;;;;;;;16.13;50.83;100029.73;25406;1313;3052123;-70
2022/10/05 11:25:47;;;;;;;2.60;1.60;;;;;;;16.23;50.74;100030.42;25224;1313;3069774;-72
2022/10/05 11:28:39;;;;;;;7.50;2.00;;;;;;;16.27;50.34;100036.69;25225;1313;3049739;-73
2022/10/05 11:31:45;;;;;;;5.50;2.00;;;;;;;16.33;50.38;100030.89;25168;1313;3053270;-73
2022/10/05 11:34:53;;;;;;;3.00;1.50;;;;;;;16.56;50.27;100032.02;25146;1313;3054988;-70
2022/10/05 11:37:41;;;;;;;4.30;1.40;;;;;;;16.60;50.18;100037.52;25185;1313;3060941;-72
2022/10/05 11:40:28;;;;;;;5.90;1.60;;;;;;;16.45;50.22;100048.56;25162;1315;3052804;-70
2022/10/05 11:43:24;;;;;;;4.40;1.60;;;;;;;16.31;49.62;100046.08;25229;1315;3053629;-74
2022/10/05 11:46:19;;;;;;;2.20;1.50;;;;;;;16.45;49.59;100047.67;25275;1315;3054177;-70
2022/10/05 11:48:59;;;;;;;3.70;1.50;;;;;;;16.64;49.04;100048.90;25178;1313;3069910;-72
2022/10/05 11:51:34;;;;;;;5.00;2.10;;;;;;;16.47;48.91;100060.65;25217;1313;3050409;-72
2022/10/05 11:54:27;;;;;;;5.10;2.20;;;;;;;16.29;49.55;100055.61;25359;1313;3055537;-72
2022/10/05 11:57:06;;;;;;;3.50;1.90;;;;;;;16.30;49.28;100051.30;25349;1313;3052927;-72
2022/10/05 11:59:44;;;;;;;4.30;1.90;;;;;;;16.32;49.21;100049.92;25259;1313;3056230;-72
2022/10/05 12:02:58;;;;;;;4.10;1.90;;;;;;;16.37;49.77;100057.85;25127;1315;3050012;-71
2022/10/05 12:05:52;;;;;;;2.60;1.70;;;;;;;16.25;49.69;100056.57;25099;1320;3056359;-69
2022/10/05 12:08:32;;;;;;;;;;;;;;;16.39;49.71;100055.54;25027;1321;3054602;-72
2022/10/05 12:11:13;;;;;;;4.00;2.30;;;;;;;16.43;49.33;100054.70;25278;1315;3068947;-71
2022/10/05 12:14:14;;;;;;;4.80;2.40;;;;;;;16.32;49.28;100054.15;25193;1315;3055268;-72
2022/10/05 12:16:57;;;;;;;3.80;1.70;;;;;;;16.40;49.47;100054.39;25170;1315;3053675;-69
2022/10/05 12:19:35;;;;;;;4.20;1.70;;;;;;;16.61;49.56;100053.73;25165;1314;3052818;-68
2022/10/05 12:22:44;;;;;;;4.40;1.50;;;;;;;16.80;48.88;100062.34;25189;1313;3056809;-66
2022/10/05 12:25:44;;;;;;;3.10;1.50;;;;;;;16.67;48.66;100069.89;25131;1314;3049869;-70
2022/10/05 12:28:19;;;;;;;2.70;1.70;;;;;;;16.62;48.97;100059.48;25201;1315;3056937;-66
2022/10/05 12:31:10;;;;;;;2.20;1.40;;;;;;;16.70;48.57;100067.30;25180;1314;3052507;-68
2022/10/05 12:33:48;;;;;;;2.80;1.40;;;;;;;16.69;48.52;100067.77;25195;1315;3069850;-71
2022/10/05 12:36:27;;;;;;;3.00;1.60;;;;;;;16.75;47.87;100071.56;24515;1315;4150382;-73
2022/10/05 12:39:02;;;;;;;2.50;1.50;;;;;;;16.69;47.83;100069.60;25187;1314;3053833;-68
2022/10/05 12:41:40;;;;;;;3.70;1.90;;;;;;;16.87;47.08;100068.73;25227;1313;3069372;-72
2022/10/05 12:44:13;;;;;;;2.70;1.70;;;;;;;17.10;46.64;100075.61;25170;1314;3049609;-69
2022/10/05 12:46:43;;;;;;;3.20;1.90;;;;;;;16.96;46.78;100075.63;25206;1315;3026487;-70
2022/10/05 12:49:34;;;;;;;3.70;1.50;;;;;;;17.04;46.72;100079.09;25186;1313;3026464;-73
2022/10/05 12:52:04;;;;;;;4.70;2.20;;;;;;;17.17;46.06;100077.59;25163;1313;3048827;-70
2022/10/05 12:54:38;;;;;;;4.30;1.90;;;;;;;17.27;46.14;100074.86;25200;1313;3026682;-69
2022/10/05 12:57:43;;;;;;;3.20;2.00;;;;;;;17.44;45.72;100080.06;25309;1313;3026995;-69
2022/10/05 13:00:13;;;;;;;4.70;1.90;;;;;;;17.49;45.60;100085.52;25151;1315;3056632;-70
2022/10/05 13:02:53;;;;;;;2.90;2.00;;;;;;;17.26;45.50;100096.11;25229;1313;3026613;-70
2022/10/05 13:05:31;;;;;;;5.30;2.20;;;;;;;17.36;45.78;100092.33;25234;1314;3055602;-71
2022/10/05 13:08:17;;;;;;;4.80;2.60;;;;;;;17.18;45.67;100097.09;25177;1313;3053958;-70
2022/10/05 13:10:59;;;;;;;5.90;2.50;;;;;;;16.75;46.52;100103.27;25209;1314;3068472;-71
2022/10/05 13:13:47;;;;;;;4.30;2.50;;;;;;;16.55;47.32;100098.36;25269;1313;3049074;-69
2022/10/05 13:16:49;;;;;;;6.50;2.40;;;;;;;16.55;47.64;100099.98;25260;1313;3052428;-73
2022/10/05 13:19:45;;;;;;;8.10;2.90;;;;;;;16.32;47.75;100107.71;25247;1313;3053401;-73
2022/10/05 13:22:23;;;;;;;4.90;2.90;;;;;;;16.43;47.60;100105.81;25191;1315;3057688;-72
2022/10/05 13:25:07;;;;;;;7.80;3.60;;;;;;;16.70;47.21;100096.73;25204;1315;3049605;-71
2022/10/05 13:27:41;;;;;;;6.70;2.60;;;;;;;16.66;47.10;100107.44;25237;1315;3051709;-67
2022/10/05 13:30:20;;;;;;;6.80;2.50;;;;;;;16.43;47.30;100105.59;25223;1313;3051763;-74
2022/10/05 13:33:16;;;;;;;5.50;2.60;;;;;;;16.40;47.72;100109.55;25264;1313;3068396;-70
2022/10/05 13:36:00;;;;;;;7.80;2.50;;;;;;;16.14;47.49;100115.94;25249;1317;3050011;-71
2022/10/05 13:38:45;;;;;;;4.40;2.30;;;;;;;15.85;47.88;100126.27;25161;1314;3054917;-70
2022/10/05 13:41:27;;;;;;;3.70;2.20;;;;;;;15.89;47.77;100127.81;25228;1313;3052431;-70
2022/10/05 13:44:31;;;;;;;3.70;1.80;;;;;;;15.72;47.88;100127.23;25201;1313;3056774;-69
2022/10/05 13:47:02;;;;;;;7.30;2.00;;;;;;;15.60;47.89;100132.84;25249;1315;3052884;-71
2022/10/05 13:49:43;;;;;;;3.90;1.70;;;;;;;15.55;48.13;100145.34;25252;1313;3027051;-72
2022/10/05 13:52:37;;;;;;;2.30;1.50;;;;;;;15.45;48.56;100146.77;25183;1315;3052499;-72
2022/10/05 13:55:20;;;;;;;2.40;1.80;;;;;;;15.38;48.88;100146.90;25246;1315;3072457;-71
2022/10/05 13:59:16;;;;;;;4.20;1.50;;;;;;;15.39;49.29;100154.98;31598;1320;3025863;-69
2022/10/05 14:01:57;;;;;;;3.60;1.90;;;;;;;15.51;49.26;100155.90;25033;1322;3054608;-72
2022/10/05 14:04:28;;;;;;;6.40;1.50;;;;;;;15.60;49.22;100160.88;25086;1322;3055572;-68
2022/10/05 14:07:12;;;;;;;3.90;1.70;;;;;;;15.35;49.90;100168.98;25069;1321;3026419;-68
2022/10/05 14:09:43;;;;;;;4.70;1.80;;;;;;;15.17;50.72;100159.46;25057;1322;3052554;-70
2022/10/05 14:12:17;;;;;;;4.70;1.80;;;;;;;15.18;50.82;100162.41;24786;1319;3036348;-73
2022/10/05 14:14:49;;;;;;;3.70;2.00;;;;;;;15.27;50.63;100164.77;25088;1322;3057055;-69
2022/10/05 14:17:25;;;;;;;5.90;1.50;;;;;;;15.37;50.52;100166.70;25084;1319;3026647;-70
2022/10/05 14:19:56;;;;;;;2.70;1.70;;;;;;;15.28;50.79;100170.87;25085;1319;3051201;-72
2022/10/05 14:22:25;;;;;;;3.60;1.80;;;;;;;15.23;51.16;100164.54;25243;1319;3027247;-71
2022/10/05 14:25:01;;;;;;;3.10;1.60;;;;;;;15.07;51.50;100165.61;25188;1316;3026729;-72
2022/10/05 14:27:47;;;;;;;5.80;1.80;;;;;;;14.96;51.99;100170.08;25203;1315;3054447;-72
2022/10/05 14:30:22;;;;;;;3.90;1.90;;;;;;;14.81;52.79;100167.54;25122;1315;3051176;-72
2022/10/05 14:32:57;;;;;;;3.70;1.80;;;;;;;14.71;53.13;100177.54;25224;1315;3071799;-71
2022/10/05 14:35:36;;;;;;;4.10;1.90;;;;;;;14.53;53.92;100177.11;25189;1316;3052105;-71
2022/10/05 14:38:20;;;;;;;2.90;1.80;;;;;;;14.48;54.17;100182.35;25205;1316;3052151;-70
2022/10/05 14:41:13;;;;;;;4.80;2.00;;;;;;;14.44;54.68;100187.04;25407;1316;3052990;-70
2022/10/05 14:43:57;;;;;;;5.10;1.80;;;;;;;14.35;54.59;100194.66;25329;1316;3056723;-74
2022/10/05 14:46:27;;;;;;;2.90;2.10;;;;;;;14.16;54.61;100197.11;25239;1316;3050310;-72
2022/10/05 14:49:15;;;;;;;4.10;1.80;;;;;;;14.10;54.92;100199.81;25276;1316;3027724;-68
2022/10/05 14:51:45;;;;;;;3.10;2.00;;;;;;;13.97;54.79;100201.83;25235;1316;3053427;-67
2022/10/05 14:54:40;;;;;;;3.60;2.00;;;;;;;13.92;55.04;100200.91;25087;1316;3026525;-68
2022/10/05 14:57:38;;;;;;;3.30;1.80;;;;;;;13.84;54.95;100204.42;25052;1316;3056051;-66
2022/10/05 15:00:15;;;;;;;4.40;1.80;;;;;;;13.64;55.50;100214.84;25133;1315;3050547;-67
2022/10/05 15:02:56;;;;;;;3.90;1.90;;;;;;;13.64;55.51;100212.17;25105;1315;3068178;-66
2022/10/05 15:05:30;;;;;;;2.60;1.70;;;;;;;13.61;55.61;100219.21;25137;1316;3050743;-74
2022/10/05 15:08:05;;;;;;;5.30;2.20;;;;;;;13.58;55.77;100216.03;25116;1315;3056469;-69
2022/10/05 15:10:59;;;;;;;3.70;1.70;;;;;;;13.58;55.16;100218.02;25120;1315;3055401;-73
2022/10/05 15:13:39;;;;;;;5.90;2.40;;;;;;;13.49;55.61;100224.36;25039;1318;3059287;-71
2022/10/05 15:16:27;;;;;;;3.80;2.00;;;;;;;13.40;55.88;100222.63;25273;1316;3050071;-69
2022/10/05 15:19:03;;;;;;;3.20;2.10;;;;;;;13.40;55.65;100224.55;25115;1315;3055625;-67
2022/10/05 15:21:41;;;;;;;2.50;2.00;;;;;;;13.34;55.80;100223.96;25111;1315;3053548;-73
2022/10/05 15:24:19;;;;;;;4.30;2.50;;;;;;;13.30;55.54;100224.93;25028;1315;3073096;-69
2022/10/05 15:26:51;;;;;;;5.30;2.50;;;;;;;13.30;55.38;100224.77;25135;1315;3049039;-70
2022/10/05 15:29:44;;;;;;;3.50;2.00;;;;;;;13.28;55.65;100222.92;25112;1315;3026434;-68
2022/10/05 15:32:33;;;;;;;;;;;;;;;13.20;55.82;100227.96;25141;1316;3052825;-73
2022/10/05 15:35:24;;;;;;;5.30;2.20;;;;;;;13.14;55.70;100227.62;25140;1315;3057591;-67
2022/10/05 15:37:54;;;;;;;3.30;1.70;;;;;;;13.09;55.79;100224.73;25068;1315;3050289;-69
2022/10/05 15:40:35;;;;;;;3.80;2.40;;;;;;;13.00;55.90;100228.07;25128;1316;3028795;-69
2022/10/05 15:43:10;;;;;;;4.40;2.20;;;;;;;13.05;55.67;100223.23;25137;1315;3050856;-66
2022/10/05 15:46:07;;;;;;;2.90;2.00;;;;;;;13.04;55.36;100233.34;25005;1318;3071558;-71
2022/10/05 15:49:00;;;;;;;2.80;1.90;;;;;;;13.00;55.82;100227.71;25124;1315;3049886;-71
2022/10/05 15:52:02;;;;;;;5.20;2.30;;;;;;;13.06;55.75;100226.33;25098;1315;3055381;-68
2022/10/05 15:54:40;;;;;;;3.90;2.00;;;;;;;13.01;55.53;100233.64;25023;1318;3053487;-67
2022/10/05 15:57:15;;;;;;;2.90;2.00;;;;;;;13.03;55.12;100236.71;25125;1315;3057787;-68
2022/10/05 16:00:17;;;;;;;3.70;1.70;;;;;;;13.02;54.90;100245.92;25088;1316;3050146;-68
2022/10/05 16:02:52;;;;;;;3.30;2.10;;;;;;;13.02;55.18;100243.81;25112;1315;3052870;-68
2022/10/05 16:08:52;;;;;;;3.50;2.10;;;;;;;12.94;55.42;100254.26;25076;1318;3068499;-69
2022/10/05 16:11:45;;;;;;;3.50;2.30;;;;;;;12.91;55.52;100260.77;25124;1315;3049479;-71
2022/10/05 16:14:28;;;;;;;3.60;2.10;;;;;;;12.87;55.81;100266.66;25126;1316;3052721;-72
2022/10/05 16:17:07;;;;;;;4.30;2.40;;;;;;;12.83;55.91;100264.96;25057;1318;3055142;-70
2022/10/05 16:20:17;;;;;;;4.30;2.40;;;;;;;12.78;56.21;100272.79;25049;1318;3055437;-70
2022/10/05 16:23:00;;;;;;;5.00;2.40;;;;;;;12.82;56.36;100273.10;25085;1316;3052569;-73
2022/10/05 16:25:45;;;;;;;4.70;2.10;;;;;;;12.75;56.63;100281.58;25023;1318;3055746;-75
2022/10/05 16:28:23;;;;;;;5.90;2.50;;;;;;;12.78;56.60;100275.25;25070;1315;3051414;-68
2022/10/05 16:30:55;;;;;;;3.60;2.40;;;;;;;12.71;57.03;100284.08;25105;1315;3069047;-72
2022/10/05 16:33:53;;;;;;;5.50;2.40;;;;;;;12.71;57.30;100276.69;25118;1315;3048793;-72
2022/10/05 16:36:30;;;;;;;6.20;3.00;;;;;;;12.68;57.42;100282.69;25138;1316;3051671;-69
2022/10/05 16:39:02;;;;;;;5.40;2.40;;;;;;;12.66;57.52;100283.48;25062;1319;3055041;-74
2022/10/05 16:41:58;;;;;;;4.60;2.80;;;;;;;12.69;57.83;100280.30;25146;1315;3028902;-70
2022/10/05 16:44:49;;;;;;;3.70;2.30;;;;;;;12.62;58.15;100284.73;25046;1318;3048549;-69
2022/10/05 16:47:40;;;;;;;4.20;2.40;;;;;;;12.65;58.20;100288.99;25169;1315;3052994;-71
2022/10/05 16:50:12;;;;;;;5.30;2.50;;;;;;;12.72;58.34;100289.31;25072;1315;3051414;-72
2022/10/05 16:52:41;;;;;;;4.10;2.50;;;;;;;12.60;58.55;100294.38;25097;1315;3027285;-71
2022/10/05 16:55:12;;;;;;;6.80;2.60;;;;;;;12.57;58.67;100291.38;25092;1318;3028716;-68
2022/10/05 16:57:50;;;;;;;3.80;2.40;;;;;;;12.61;58.29;100289.88;25136;1315;3049966;-70